createdAt,value
2023-01-19T00:01:42.665Z,6.53
2023-01-19T00:04:42.673Z,6.48
2023-01-19T00:07:43.878Z,6.41
2023-01-19T00:10:44.735Z,6.34
2023-01-19T00:13:45.779Z,6.28
2023-01-19T00:16:45.751Z,6.22
2023-01-19T00:19:45.715Z,6.17
2023-01-19T00:22:47.836Z,6.15
2023-01-19T00:25:49.779Z,6.13
2023-01-19T00:28:49.758Z,6.12
2023-01-19T00:31:49.879Z,6.11
2023-01-19T00:34:56.782Z,6.10
2023-01-19T00:37:58.763Z,6.09
2023-01-19T00:40:58.785Z,6.05
2023-01-19T00:43:58.785Z,6.02
2023-01-19T00:46:58.756Z,6.01
2023-01-19T00:49:58.781Z,5.99
2023-01-19T00:52:59.062Z,5.98
2023-01-19T00:55:59.886Z,5.95
2023-01-19T00:58:59.824Z,5.95
2023-01-19T05:01:02.000Z,5.16
2023-01-19T05:04:02.948Z,5.24
2023-01-19T05:07:05.005Z,5.24
2023-01-19T05:10:06.371Z,5.23
2023-01-19T05:13:07.083Z,5.21
2023-01-19T05:16:08.165Z,5.22
2023-01-19T05:19:09.161Z,5.24
2023-01-19T05:22:12.407Z,5.26
2023-01-19T05:25:34.024Z,5.26
2023-01-19T05:28:35.036Z,5.26
2023-01-19T05:31:36.184Z,5.27
2023-01-19T05:34:37.128Z,5.28
2023-01-19T05:37:40.018Z,5.32
2023-01-19T05:40:41.110Z,5.33
2023-01-19T05:43:42.022Z,5.33
2023-01-19T05:46:43.259Z,5.38
2023-01-19T05:49:44.112Z,5.44
2023-01-19T05:52:45.166Z,5.51
2023-01-19T05:55:46.052Z,5.58
2023-01-19T05:58:47.082Z,5.66
2023-01-19T06:01:49.128Z,5.74
2023-01-19T06:04:52.272Z,5.78
2023-01-19T06:07:53.518Z,5.83
2023-01-19T06:10:54.301Z,5.86
2023-01-19T06:13:58.164Z,5.80
2023-01-19T06:17:02.124Z,5.79
2023-01-19T06:20:03.309Z,5.78
2023-01-19T06:23:04.285Z,5.70
2023-01-19T06:26:05.099Z,5.63
2023-01-19T06:29:06.119Z,5.57
2023-01-19T06:32:07.082Z,5.58
2023-01-19T06:35:09.137Z,5.57
2023-01-19T06:38:10.108Z,5.56
2023-01-19T06:41:12.129Z,5.45
2023-01-19T06:44:15.535Z,5.33
2023-01-19T06:47:18.192Z,5.22
2023-01-19T06:50:20.133Z,5.13
2023-01-19T06:53:21.145Z,5.06
2023-01-19T06:56:22.164Z,5.03
2023-01-19T06:59:25.194Z,4.99
2023-01-19T07:02:29.315Z,4.98
2023-01-19T07:05:30.246Z,4.96
2023-01-19T07:08:31.201Z,4.80
2023-01-19T07:11:32.442Z,4.47
2023-01-19T07:14:40.415Z,4.17
2023-01-19T07:17:41.149Z,3.92
2023-01-19T07:20:42.210Z,3.79
2023-01-19T07:23:45.206Z,3.71
2023-01-19T07:26:46.427Z,3.68
2023-01-19T07:29:48.256Z,3.66
2023-01-19T07:32:49.253Z,3.67
2023-01-19T07:35:50.225Z,3.66
2023-01-19T07:38:51.220Z,3.65
2023-01-19T07:41:56.461Z,3.67
2023-01-19T07:44:59.253Z,3.67
2023-01-19T07:48:01.145Z,3.67
2023-01-19T07:51:02.222Z,3.68
2023-01-19T07:54:06.460Z,3.73
2023-01-19T07:57:08.229Z,3.74
2023-01-19T08:00:10.304Z,3.74
2023-01-19T08:03:13.297Z,3.76
2023-01-19T08:06:14.281Z,3.80
2023-01-19T08:09:15.299Z,3.82
2023-01-19T08:12:16.269Z,3.85
2023-01-19T08:15:17.291Z,3.92
2023-01-19T08:18:18.321Z,3.99
2023-01-19T08:21:19.307Z,4.01
2023-01-19T08:24:20.396Z,3.98
2023-01-19T08:27:21.295Z,3.93
2023-01-19T08:30:23.343Z,3.86
2023-01-19T08:33:25.334Z,3.63
2023-01-19T08:36:26.310Z,3.50
2023-01-19T08:39:27.347Z,3.48
2023-01-19T08:42:28.310Z,3.48
2023-01-19T08:45:29.355Z,3.46
2023-01-19T08:48:31.309Z,3.47
2023-01-19T08:51:32.342Z,3.47
2023-01-19T08:54:33.513Z,3.48
2023-01-19T08:57:34.329Z,3.52
2023-01-19T09:00:37.351Z,3.54
2023-01-19T09:03:38.387Z,3.55
2023-01-19T09:06:39.363Z,3.62
2023-01-19T09:09:33.439Z,3.69
2023-01-19T09:12:20.399Z,3.75
2023-01-19T09:15:22.465Z,3.80
2023-01-19T09:18:25.386Z,3.84
2023-01-19T09:21:19.485Z,3.89
2023-01-19T09:24:22.127Z,3.97
2023-01-19T09:27:22.376Z,4.10
2023-01-19T09:30:24.661Z,4.15
2023-01-19T09:33:27.396Z,4.24
2023-01-19T09:36:28.459Z,4.32
2023-01-19T09:39:29.427Z,4.34
2023-01-19T09:42:33.461Z,4.36
2023-01-19T09:45:52.468Z,4.42
2023-01-19T09:48:57.597Z,4.49
2023-01-19T09:52:01.479Z,4.53
2023-01-19T09:55:09.452Z,4.54
2023-01-19T09:58:10.474Z,4.59
2023-01-19T12:12:45.896Z,6.82
2023-01-19T12:15:50.964Z,6.96
2023-01-19T12:18:56.879Z,7.00
2023-01-19T12:21:57.902Z,6.99
2023-01-19T12:25:27.903Z,7.02
2023-01-19T12:28:28.912Z,7.05
2023-01-19T12:31:32.004Z,7.08
2023-01-19T12:34:42.954Z,7.12
2023-01-19T12:37:50.958Z,7.15
2023-01-19T12:40:55.958Z,7.17
2023-01-19T12:43:57.029Z,7.23
2023-01-19T12:46:56.921Z,7.28
2023-01-19T12:49:57.960Z,7.32
2023-01-19T12:53:08.964Z,7.36
2023-01-19T12:56:12.962Z,7.42
2023-01-19T12:59:12.948Z,7.44
2023-01-19T13:02:30.956Z,7.47
2023-01-19T13:05:34.977Z,7.49
2023-01-19T13:08:36.969Z,7.51
2023-01-19T13:11:36.984Z,7.54
2023-01-19T13:14:50.012Z,7.56
2023-01-19T13:18:02.954Z,7.59
2023-01-19T13:21:11.972Z,7.61
2023-01-19T13:24:21.004Z,7.64
2023-01-19T13:27:22.983Z,7.68
2023-01-19T13:30:30.076Z,7.68
2023-01-19T13:33:32.978Z,7.70
2023-01-19T13:36:43.980Z,7.72
2023-01-19T13:39:57.020Z,7.73
2023-01-19T13:42:58.106Z,7.74
2023-01-19T13:46:03.087Z,7.75
2023-01-19T13:49:34.086Z,7.75
2023-01-19T13:52:37.048Z,7.76
2023-01-19T13:55:39.075Z,7.76
2023-01-19T13:58:40.052Z,7.75
2023-01-19T14:01:40.203Z,7.74
2023-01-19T14:04:44.127Z,7.74
2023-01-19T14:07:47.382Z,7.76
2023-01-19T14:10:48.132Z,7.78
2023-01-19T14:13:51.058Z,7.80
2023-01-19T14:16:54.154Z,7.82
2023-01-19T14:20:02.157Z,7.83
2023-01-19T14:23:02.083Z,7.84
2023-01-19T14:26:02.148Z,7.85
2023-01-19T14:29:02.076Z,7.86
2023-01-19T14:32:22.161Z,7.88
2023-01-19T14:35:22.083Z,7.91
2023-01-19T14:38:27.114Z,7.94
2023-01-19T14:41:36.208Z,7.99
2023-01-19T14:44:45.146Z,8.02
2023-01-19T14:47:45.198Z,8.04
2023-01-19T14:51:02.751Z,8.07
2023-01-19T14:54:06.225Z,8.09
2023-01-19T14:57:07.137Z,8.10
2023-01-19T15:00:08.295Z,8.12
2023-01-19T15:03:08.175Z,8.13
2023-01-19T15:06:08.162Z,8.14
2023-01-19T15:09:10.290Z,8.14
2023-01-19T15:12:18.511Z,8.16
2023-01-19T15:15:26.268Z,8.16
2023-01-19T15:18:33.276Z,8.16
2023-01-19T15:21:35.199Z,8.17
2023-01-19T15:24:37.263Z,8.19
2023-01-19T15:27:37.181Z,8.20
2023-01-19T15:30:40.253Z,8.23
2023-01-19T15:33:42.225Z,8.26
2023-01-19T15:36:42.234Z,8.29
2023-01-19T15:39:44.250Z,8.32
2023-01-19T15:42:44.251Z,8.37
2023-01-19T15:46:03.312Z,8.39
2023-01-19T15:49:04.253Z,8.40
2023-01-19T15:52:05.226Z,8.42
2023-01-19T15:55:05.415Z,8.44
2023-01-19T15:58:08.255Z,8.46
2023-01-19T16:01:11.354Z,8.50
2023-01-19T16:04:12.303Z,8.53
2023-01-19T16:07:12.357Z,8.57
2023-01-19T16:10:15.307Z,8.62
2023-01-19T16:13:16.393Z,8.64
2023-01-19T16:16:21.328Z,8.68
2023-01-19T16:19:22.495Z,8.73
2023-01-19T16:22:24.332Z,8.76
2023-01-19T16:25:26.340Z,8.79
2023-01-19T16:28:27.798Z,8.82
2023-01-19T16:31:28.333Z,8.84
2023-01-19T16:34:29.281Z,8.87
2023-01-19T16:37:30.312Z,8.91
2023-01-19T16:40:30.272Z,8.95
2023-01-19T16:43:30.364Z,8.97
2023-01-19T16:46:41.420Z,9.01
2023-01-19T16:49:42.338Z,9.01
2023-01-19T16:52:42.326Z,9.04
2023-01-19T16:55:42.319Z,9.08
2023-01-19T16:58:44.423Z,9.11
2023-01-19T17:01:44.432Z,9.14
2023-01-19T17:04:44.515Z,9.15
2023-01-19T17:07:45.396Z,9.18
2023-01-19T17:10:49.384Z,9.22
2023-01-19T17:13:49.360Z,9.25
2023-01-19T17:16:49.491Z,9.29
2023-01-19T17:19:51.412Z,9.31
2023-01-19T17:22:51.395Z,9.33
2023-01-19T17:25:51.418Z,9.35
2023-01-19T17:28:51.363Z,9.37
2023-01-19T17:31:51.502Z,9.38
2023-01-19T17:34:52.403Z,9.40
2023-01-19T17:37:52.485Z,9.43
2023-01-19T17:40:52.432Z,9.44
2023-01-19T17:43:52.446Z,9.47
2023-01-19T17:46:52.466Z,9.48
2023-01-19T17:50:04.632Z,9.49
2023-01-19T17:53:12.540Z,9.49
2023-01-19T17:56:16.514Z,9.50
2023-01-19T17:59:16.479Z,9.50
2023-01-19T18:02:16.561Z,9.48
2023-01-19T18:05:18.524Z,9.46
2023-01-19T18:08:20.487Z,9.44
2023-01-19T18:11:20.546Z,9.44
2023-01-19T18:14:20.452Z,9.42
2023-01-19T18:17:20.474Z,9.43
2023-01-19T18:20:20.509Z,9.42
2023-01-19T18:23:20.527Z,9.41
2023-01-19T18:26:27.602Z,9.37
2023-01-19T18:29:27.958Z,9.34
2023-01-19T18:32:28.516Z,9.26
2023-01-19T18:35:28.573Z,9.22
2023-01-19T18:38:31.779Z,9.16
2023-01-19T18:41:32.666Z,9.09
2023-01-19T18:44:32.644Z,9.02
2023-01-19T18:47:34.827Z,8.97
2023-01-19T18:50:35.531Z,8.90
2023-01-19T18:53:35.555Z,8.85
2023-01-19T18:56:35.541Z,8.80
2023-01-19T18:59:35.620Z,8.76
2023-01-19T19:02:35.586Z,8.72
2023-01-19T20:28:30.732Z,7.92
2023-01-19T20:31:33.842Z,7.93
2023-01-19T20:34:36.749Z,7.89
2023-01-19T20:37:37.735Z,7.85
2023-01-19T20:40:38.668Z,7.82
2023-01-19T20:43:39.733Z,7.78
2023-01-19T20:46:40.796Z,7.74
2023-01-19T20:49:41.745Z,7.70
2023-01-19T20:52:43.256Z,7.65
2023-01-19T20:55:43.770Z,7.60
2023-01-19T20:58:49.853Z,7.55
2023-01-19T21:01:50.902Z,7.51
2023-01-19T21:04:51.813Z,7.48
2023-01-19T21:07:52.777Z,7.45
2023-01-19T21:11:01.247Z,7.43
2023-01-19T21:14:02.803Z,7.41
2023-01-19T21:17:04.773Z,7.39
2023-01-19T21:20:05.870Z,7.37
2023-01-19T21:23:06.818Z,7.36
2023-01-19T21:26:12.881Z,7.34
2023-01-19T21:29:13.827Z,7.34
2023-01-19T21:32:17.794Z,7.36
2023-01-19T21:35:18.855Z,7.38
2023-01-19T21:38:19.853Z,7.38
2023-01-19T21:41:23.049Z,7.39
2023-01-19T21:44:26.858Z,7.38
2023-01-19T21:47:30.186Z,7.40
2023-01-19T21:50:31.814Z,7.40
2023-01-19T21:53:35.919Z,7.41
2023-01-19T21:56:51.091Z,7.42
2023-01-19T21:59:57.448Z,7.42
2023-01-19T22:03:05.597Z,7.40
2023-01-19T22:06:10.612Z,7.41
2023-01-19T22:09:14.887Z,7.42
2023-01-19T22:12:10.987Z,7.45
2023-01-19T22:15:12.065Z,7.46
2023-01-19T22:18:12.953Z,7.45
2023-01-19T22:21:23.907Z,7.45
2023-01-19T22:24:24.933Z,7.46
2023-01-19T22:27:29.177Z,7.47
2023-01-19T22:30:29.992Z,7.49
2023-01-19T22:33:37.129Z,7.50
2023-01-19T22:36:42.989Z,7.53
2023-01-19T22:39:44.030Z,7.56
2023-01-19T22:42:44.956Z,7.59
2023-01-19T22:45:45.966Z,7.62
2023-01-19T22:48:47.006Z,7.65
2023-01-19T22:51:47.978Z,7.68
2023-01-19T22:54:49.026Z,7.70
2023-01-19T22:57:49.938Z,7.72
2023-01-19T23:00:52.142Z,7.75
2023-01-19T23:03:53.061Z,7.78
2023-01-19T23:06:56.956Z,7.79
2023-01-19T23:09:57.993Z,7.81
2023-01-19T23:12:59.008Z,7.81
2023-01-19T23:16:00.064Z,7.81
2023-01-19T23:19:01.198Z,7.83
2023-01-19T23:22:04.984Z,7.85
2023-01-19T23:24:59.098Z,7.88
2023-01-19T23:28:00.008Z,7.91
2023-01-19T23:31:01.110Z,7.92
2023-01-19T23:34:06.011Z,7.94
2023-01-19T23:37:07.033Z,7.97
2023-01-19T23:40:09.049Z,7.98
2023-01-19T23:43:10.125Z,7.99
2023-01-19T23:46:11.091Z,8.01
2023-01-19T23:49:12.093Z,8.03
2023-01-19T23:52:13.078Z,8.06
2023-01-19T23:55:15.329Z,8.06
2023-01-19T23:58:16.134Z,8.08
